Aérodrome :
LOGIN :

S'inscrire | Disclaimer

   EN    FR    IT 

 










Légende :    VFR   VFR Marginal   IFR   IFR Intensif   IFR Très Intensif
Visi : 
Plafond : 
>= 8 km
>= 3000ft
5 à 8 km
1000 à 3000 ft
1500m à 5 km
500 à 1000 ft
800 à 1500m
200 à 500 ft
< 800m
< 200 ft
Symboles :   Orages  Brouillard  Fortes neiges  Fortes précipitations  Vent > 20 kt
SIGMETs :   Divers  Orages  Givrage  Turbulence  Onde Orograph.  Cendres Volcan.







- Altitude de l'aérodrome : 364 ft
- Code IATA : FRA


EDDF - Frankfurt Int.

DERNIER METAR :
  • 231150Z VRB11KT 9999 FEW036 BKN038 17/07 Q1025 NOSIG

METARs EXPIRÉS :
  • 231120Z VRB12KT 9999 SCT039 BKN067 18/07 Q1026 NOSIG
  • 231050Z 31011KT 280V340 9999 SCT039 BKN067 17/06 Q1026 NOSIG
  • 231020Z 27008G21KT 220V340 9999 SCT044 BKN060 17/06 Q1026 NOSIG
  • 230950Z 29008KT 220V340 9999 FEW044 BKN060 17/05 Q1026 NOSIG
  • 230920Z VRB05KT 9999 FEW044 BKN060 18/05 Q1026 NOSIG
  • 230850Z 30006KT 270V030 9999 FEW042 SCT060 17/05 Q1026 NOSIG

TAF TAF EDDF
Valide du 23 à 12h jusqu'au 24 à 18h UTC


231100Z 2312/2418 31009KT 9999 FEW040
TEMPO 2312/2418 BKN035
BECMG 2320/2322 VRB03KT
BECMG 2408/2410 34007KT
Pas de NOTAMs connus pour ce terrain.



MET'MAP, la Météo Aéronautique d'un coup d'oeil ! - Copyright ORBIFLY Décembre 2007 - Disclaimer

ORBIFLY MET'MAP TEAM :

Programmation & Développement : Alexandra Zaïnal
Conception & Développement : Baudouin d'Aumeries
Co-Programmation & Développement : Marc-Olivier Méhu
Soutien technique & logistique : Manuel Goepfert

Contact : metmap@orbifly.com




SOURCES & CREDITS :

   NOAA